Time;durP1;ratioP1;P1;durP2;ratioP2;P2;SDS_P1;SDS_P2;PMS_P1;PMS_P2;Temp;Humidity;BMP_temperature;BMP_pressure;BME280_temperature;BME280_humidity;BME280_pressure;Samples;Min_cycle;Max_cycle;Signal;HPM_P1;HPM_P2
2021/08/20 00:00:34;;;;;;;5.15;2.63;;;17.60;99.90;;;;;;4998704;28;20057;-80
2021/08/20 00:02:59;;;;;;;4.93;2.60;;;17.60;99.90;;;;;;4995366;28;20058;-81
2021/08/20 00:05:25;;;;;;;3.63;2.30;;;17.60;99.90;;;;;;4999194;28;20109;-81
2021/08/20 00:07:51;;;;;;;2.90;2.35;;;17.60;99.90;;;;;;4998221;28;20566;-80
2021/08/20 00:10:17;;;;;;;3.15;2.45;;;17.50;99.90;;;;;;4998907;28;20043;-80
2021/08/20 00:12:42;;;;;;;3.65;2.22;;;17.30;99.90;;;;;;4998498;28;20029;-80
2021/08/20 00:15:09;;;;;;;3.08;2.42;;;17.20;99.90;;;;;;4995006;28;20112;-80
2021/08/20 00:17:34;;;;;;;3.50;2.33;;;17.20;99.90;;;;;;4998876;28;20030;-80
2021/08/20 00:20:00;;;;;;;2.85;2.50;;;17.20;99.90;;;;;;4998291;28;20030;-80
2021/08/20 00:22:27;;;;;;;2.53;2.33;;;17.10;99.90;;;;;;4998306;28;20030;-80
2021/08/20 00:24:53;;;;;;;5.00;2.33;;;17.10;99.90;;;;;;4998072;28;20026;-80
2021/08/20 00:27:18;;;;;;;4.53;2.45;;;17.10;99.90;;;;;;4995843;28;20041;-81
2021/08/20 00:29:44;;;;;;;4.20;2.78;;;17.10;99.90;;;;;;4997129;28;20058;-81
2021/08/20 00:32:10;;;;;;;5.18;2.40;;;17.20;99.90;;;;;;4998618;28;20045;-80
2021/08/20 00:34:35;;;;;;;4.43;2.40;;;17.10;99.90;;;;;;4997993;28;20407;-80
2021/08/20 00:37:01;;;;;;;5.00;2.55;;;17.00;99.90;;;;;;4998056;28;20041;-80
2021/08/20 00:39:27;;;;;;;3.08;2.60;;;17.00;99.90;;;;;;4979352;28;20026;-80
2021/08/20 00:41:52;;;;;;;3.58;2.35;;;17.10;99.90;;;;;;4995239;28;20030;-80
2021/08/20 00:44:19;;;;;;;4.78;2.30;;;17.00;99.90;;;;;;4998544;28;20049;-80
2021/08/20 00:46:45;;;;;;;5.65;2.67;;;16.80;99.90;;;;;;4998314;28;20027;-81
2021/08/20 00:49:14;;;;;;;3.08;2.13;;;16.90;99.90;;;;;;4997762;28;20038;-80
2021/08/20 00:51:41;;;;;;;3.60;2.22;;;17.00;99.90;;;;;;4997881;28;20111;-80
2021/08/20 00:54:09;;;;;;;3.60;2.30;;;17.00;99.90;;;;;;4993594;28;20463;-80
2021/08/20 00:56:42;;;;;;;2.75;2.22;;;17.00;99.90;;;;;;5005840;28;20022;-80
2021/08/20 00:59:11;;;;;;;4.43;2.70;;;16.80;99.90;;;;;;4997779;28;20041;-80
2021/08/20 01:01:37;;;;;;;2.97;2.08;;;16.80;99.90;;;;;;4997879;28;20534;-80
2021/08/20 01:04:03;;;;;;;3.70;2.30;;;16.70;99.90;;;;;;4998026;28;20033;-80
2021/08/20 01:06:30;;;;;;;4.03;2.40;;;16.80;99.90;;;;;;4995840;28;20056;-80
2021/08/20 01:08:56;;;;;;;4.03;2.90;;;16.80;99.90;;;;;;4994268;28;20057;-81
2021/08/20 01:11:25;;;;;;;3.28;2.20;;;16.80;99.90;;;;;;4980575;28;20121;-80
2021/08/20 01:13:51;;;;;;;2.88;2.40;;;16.80;99.90;;;;;;4997747;28;20034;-80
2021/08/20 01:16:17;;;;;;;3.10;2.42;;;16.70;99.90;;;;;;4997610;28;20081;-80
2021/08/20 01:18:42;;;;;;;2.75;2.30;;;16.60;99.90;;;;;;4980186;28;20033;-80
2021/08/20 01:21:15;;;;;;;3.92;2.30;;;16.50;99.90;;;;;;4992956;28;20023;-80
2021/08/20 01:23:54;;;;;;;5.85;2.92;;;16.50;99.90;;;;;;4996692;28;20026;-80
2021/08/20 01:26:20;;;;;;;3.45;2.50;;;16.50;99.90;;;;;;4996533;28;20035;-80
2021/08/20 01:28:46;;;;;;;2.67;2.22;;;16.50;99.90;;;;;;4997145;28;20049;-80
2021/08/20 01:31:14;;;;;;;3.35;2.30;;;16.40;99.90;;;;;;4996983;28;20058;-80
2021/08/20 01:33:40;;;;;;;2.83;2.58;;;16.30;99.90;;;;;;4997325;28;20038;-81
2021/08/20 01:36:08;;;;;;;3.10;2.58;;;16.30;99.90;;;;;;4992880;28;20058;-80
2021/08/20 01:38:49;;;;;;;3.58;2.30;;;16.20;99.90;;;;;;5004317;28;20030;-80
2021/08/20 01:41:15;;;;;;;3.47;2.50;;;16.30;99.90;;;;;;4997306;28;20053;-80
2021/08/20 01:43:41;;;;;;;3.28;2.30;;;16.40;99.90;;;;;;4997206;28;20088;-81
2021/08/20 01:46:06;;;;;;;3.22;2.42;;;16.40;99.90;;;;;;4997068;28;20399;-81
2021/08/20 01:48:32;;;;;;;3.72;2.75;;;16.40;99.90;;;;;;4995704;28;20034;-80
2021/08/20 01:50:58;;;;;;;2.65;2.30;;;16.40;99.90;;;;;;4975871;28;20037;-80
2021/08/20 01:53:24;;;;;;;3.45;2.53;;;16.30;99.90;;;;;;4997802;28;20594;-81
2021/08/20 01:55:49;;;;;;;3.80;2.38;;;16.20;99.90;;;;;;4996656;28;20061;-80
2021/08/20 01:58:15;;;;;;;2.75;2.40;;;16.30;99.90;;;;;;4996671;28;20046;-80
2021/08/20 02:00:41;;;;;;;3.88;2.38;;;16.30;99.90;;;;;;4979220;28;20119;-80
2021/08/20 02:03:07;;;;;;;4.07;2.28;;;16.30;99.90;;;;;;4992380;28;20491;-81
2021/08/20 02:05:33;;;;;;;4.28;2.40;;;16.30;99.90;;;;;;5004261;28;20534;-80
2021/08/20 02:07:59;;;;;;;2.22;1.95;;;16.30;99.90;;;;;;4996581;28;20130;-80
2021/08/20 02:10:25;;;;;;;3.30;2.47;;;16.40;99.90;;;;;;4996481;28;20041;-80
2021/08/20 02:12:51;;;;;;;3.17;2.35;;;16.40;99.90;;;;;;4996714;28;20034;-80
2021/08/20 02:15:17;;;;;;;2.70;2.35;;;16.20;99.90;;;;;;4993543;28;20060;-81
2021/08/20 02:17:42;;;;;;;3.65;2.33;;;16.20;99.90;;;;;;4994730;28;20049;-80
2021/08/20 02:20:09;;;;;;;2.85;2.22;;;16.10;99.90;;;;;;4995558;28;20034;-80
2021/08/20 02:22:36;;;;;;;4.05;2.33;;;16.10;99.90;;;;;;4996191;28;20144;-81
2021/08/20 02:25:03;;;;;;;3.25;2.20;;;16.10;99.90;;;;;;4996565;28;20101;-80
2021/08/20 02:27:28;;;;;;;3.92;2.60;;;16.10;99.90;;;;;;4994811;28;20026;-80
2021/08/20 02:29:54;;;;;;;2.75;2.55;;;16.10;99.90;;;;;;4993430;28;20045;-81
2021/08/20 02:32:20;;;;;;;2.90;2.60;;;16.00;99.90;;;;;;4996307;28;20383;-81
2021/08/20 02:34:46;;;;;;;6.47;2.22;;;16.00;99.90;;;;;;4995788;28;20054;-80
2021/08/20 02:37:11;;;;;;;3.03;2.50;;;16.00;99.90;;;;;;4995896;28;20110;-81
2021/08/20 02:39:37;;;;;;;4.15;2.50;;;16.10;99.90;;;;;;4995819;28;20041;-80
2021/08/20 02:42:03;;;;;;;3.03;2.45;;;16.00;99.90;;;;;;4992262;28;20027;-80
2021/08/20 02:44:29;;;;;;;3.13;2.30;;;15.90;99.90;;;;;;4996857;28;20026;-81
2021/08/20 02:46:54;;;;;;;3.03;2.72;;;15.80;99.90;;;;;;4995509;28;20383;-80
2021/08/20 02:49:20;;;;;;;4.18;2.85;;;15.80;99.90;;;;;;4994793;28;20042;-81
2021/08/20 02:51:45;;;;;;;3.75;2.53;;;15.80;99.90;;;;;;4996304;28;20061;-81
2021/08/20 02:54:11;;;;;;;2.63;2.15;;;15.80;99.90;;;;;;4992255;28;20034;-81
2021/08/20 02:56:37;;;;;;;3.08;2.20;;;15.80;99.90;;;;;;4995614;28;20030;-80
2021/08/20 02:59:02;;;;;;;2.58;2.38;;;15.80;99.90;;;;;;4996280;28;20534;-80
2021/08/20 03:01:28;;;;;;;3.00;2.67;;;15.80;99.90;;;;;;4995225;28;20041;-80
2021/08/20 03:03:54;;;;;;;3.03;2.40;;;15.90;99.90;;;;;;4995636;28;20410;-81
2021/08/20 03:06:20;;;;;;;2.85;2.60;;;15.80;99.90;;;;;;4993140;28;20038;-80
2021/08/20 03:08:46;;;;;;;2.65;2.45;;;15.80;99.90;;;;;;4976961;28;20415;-81
2021/08/20 03:11:11;;;;;;;3.83;2.17;;;15.70;99.90;;;;;;4996295;28;20037;-81
2021/08/20 03:13:37;;;;;;;3.60;2.75;;;15.70;99.90;;;;;;4995997;28;20411;-80
2021/08/20 03:16:03;;;;;;;3.67;2.65;;;15.70;99.90;;;;;;4995263;28;20027;-81
2021/08/20 03:18:28;;;;;;;4.55;2.78;;;15.70;99.90;;;;;;4994396;28;20026;-80
2021/08/20 03:20:54;;;;;;;4.00;2.60;;;15.70;99.90;;;;;;4992753;28;20104;-81
2021/08/20 03:23:20;;;;;;;7.30;2.50;;;15.70;99.90;;;;;;4996468;28;20364;-80
2021/08/20 03:25:45;;;;;;;3.08;2.78;;;15.70;99.90;;;;;;4995556;28;20034;-80
2021/08/20 03:28:11;;;;;;;3.55;2.83;;;15.60;99.90;;;;;;4995581;28;20096;-80
2021/08/20 03:30:37;;;;;;;5.28;2.60;;;15.60;99.90;;;;;;4995496;28;20569;-81
2021/08/20 03:33:03;;;;;;;3.38;2.30;;;15.60;99.90;;;;;;4991422;28;20076;-80
2021/08/20 03:35:29;;;;;;;3.90;2.40;;;15.60;99.90;;;;;;4995980;28;20108;-80
2021/08/20 03:37:58;;;;;;;2.95;2.60;;;15.50;99.90;;;;;;4995339;28;20427;-81
2021/08/20 03:40:24;;;;;;;5.80;3.08;;;15.50;99.90;;;;;;4995430;28;20034;-80
2021/08/20 03:42:52;;;;;;;3.85;2.50;;;15.50;99.90;;;;;;4995760;28;20030;-80
2021/08/20 03:45:18;;;;;;;4.30;2.53;;;15.50;99.90;;;;;;4992460;28;20109;-80
2021/08/20 03:47:44;;;;;;;4.88;2.60;;;15.50;99.90;;;;;;4976494;28;20123;-80
2021/08/20 03:50:09;;;;;;;3.40;2.63;;;15.40;99.90;;;;;;4995591;28;20112;-80
2021/08/20 03:52:35;;;;;;;3.67;2.72;;;15.40;99.90;;;;;;4996028;28;20057;-80
2021/08/20 03:55:01;;;;;;;3.97;2.30;;;15.50;99.90;;;;;;4995219;28;20085;-80
2021/08/20 03:57:26;;;;;;;3.88;3.03;;;15.40;99.90;;;;;;4993352;28;20147;-81
2021/08/20 03:59:52;;;;;;;3.72;2.88;;;15.30;99.90;;;;;;4992475;28;20030;-80
2021/08/20 04:02:17;;;;;;;4.53;2.80;;;15.20;99.90;;;;;;4999247;28;20035;-80
2021/08/20 04:04:43;;;;;;;4.82;2.80;;;15.30;99.90;;;;;;4998711;28;20027;-80
2021/08/20 04:07:09;;;;;;;3.80;2.70;;;15.30;99.90;;;;;;4998677;28;20037;-80
2021/08/20 04:09:34;;;;;;;4.78;2.67;;;15.30;99.90;;;;;;4998465;28;20555;-80
2021/08/20 04:12:00;;;;;;;3.65;2.83;;;15.20;99.90;;;;;;4994931;28;20423;-81
2021/08/20 04:14:26;;;;;;;4.13;2.70;;;15.30;99.90;;;;;;4998854;28;20022;-80
2021/08/20 04:16:51;;;;;;;3.58;2.97;;;15.20;99.90;;;;;;4999413;28;20108;-81
2021/08/20 04:19:17;;;;;;;5.28;2.53;;;15.20;99.90;;;;;;4998450;28;20448;-80
2021/08/20 04:21:44;;;;;;;4.50;2.78;;;15.30;99.90;;;;;;4998565;28;20038;-80
2021/08/20 04:24:12;;;;;;;3.22;2.90;;;15.30;99.90;;;;;;4994781;28;20034;-81
2021/08/20 04:26:38;;;;;;;4.03;2.70;;;15.30;99.90;;;;;;4997920;28;20598;-80
2021/08/20 04:29:04;;;;;;;3.72;2.70;;;15.30;99.90;;;;;;4998496;28;20038;-80
2021/08/20 04:31:30;;;;;;;4.32;2.70;;;15.30;99.90;;;;;;4998045;28;20372;-80
2021/08/20 04:33:55;;;;;;;3.55;3.05;;;15.30;99.90;;;;;;4997977;28;20123;-81
2021/08/20 04:36:21;;;;;;;5.35;3.00;;;15.20;99.90;;;;;;4996503;28;20030;-80
2021/08/20 04:38:46;;;;;;;5.38;2.83;;;15.20;99.90;;;;;;4996683;28;20517;-80
2021/08/20 04:41:12;;;;;;;3.13;2.80;;;15.20;99.90;;;;;;4998617;28;20168;-81
2021/08/20 04:43:38;;;;;;;3.10;2.67;;;15.10;99.90;;;;;;4997984;28;20407;-81
2021/08/20 04:46:03;;;;;;;6.00;3.38;;;15.20;99.90;;;;;;4997887;28;20105;-80
2021/08/20 04:48:29;;;;;;;4.30;3.38;;;15.10;99.90;;;;;;4996933;28;20462;-80
2021/08/20 04:50:56;;;;;;;4.75;4.00;;;15.20;99.90;;;;;;4995615;28;20030;-80
2021/08/20 04:53:25;;;;;;;4.88;4.38;;;15.20;99.90;;;;;;4998428;28;20062;-80
2021/08/20 04:55:50;;;;;;;3.60;3.30;;;15.30;99.90;;;;;;4997797;28;20121;-80
2021/08/20 04:58:16;;;;;;;6.93;3.60;;;15.20;99.90;;;;;;4997359;28;20117;-81
2021/08/20 05:00:46;;;;;;;3.92;3.00;;;15.10;99.90;;;;;;4997944;28;20038;-80
2021/08/20 05:03:13;;;;;;;3.50;3.00;;;15.20;99.90;;;;;;4993795;28;20041;-80
2021/08/20 05:05:41;;;;;;;5.15;3.30;;;15.20;99.90;;;;;;4996421;28;20032;-80
2021/08/20 05:08:07;;;;;;;3.42;2.92;;;15.20;99.90;;;;;;4997213;28;20022;-83
2021/08/20 05:10:33;;;;;;;4.85;3.10;;;15.20;99.90;;;;;;4997415;28;20038;-84
2021/08/20 05:12:58;;;;;;;3.95;3.38;;;15.30;99.90;;;;;;4996541;28;20080;-83
2021/08/20 05:15:26;;;;;;;5.32;3.28;;;15.30;99.90;;;;;;4995796;28;20080;-84
2021/08/20 05:17:53;;;;;;;3.65;3.08;;;15.20;99.90;;;;;;4994865;28;20109;-84
2021/08/20 05:20:19;;;;;;;3.55;2.92;;;15.30;99.90;;;;;;4980536;28;20418;-84
2021/08/20 05:22:49;;;;;;;4.40;3.20;;;15.30;99.90;;;;;;4997818;28;20034;-84
2021/08/20 05:25:15;;;;;;;3.90;2.90;;;15.40;99.90;;;;;;4997269;28;20101;-83
2021/08/20 05:27:41;;;;;;;4.00;2.70;;;15.30;99.90;;;;;;4997263;28;20034;-83
2021/08/20 05:30:07;;;;;;;3.92;2.70;;;15.30;99.90;;;;;;4993251;28;20045;-83
2021/08/20 05:32:33;;;;;;;3.47;2.92;;;15.40;99.90;;;;;;5004562;28;20438;-83
2021/08/20 05:34:59;;;;;;;3.65;2.90;;;15.40;99.90;;;;;;4997395;28;20042;-84
2021/08/20 05:37:25;;;;;;;4.20;2.88;;;15.40;99.90;;;;;;4996924;28;20026;-83
2021/08/20 05:39:50;;;;;;;3.95;3.00;;;15.40;99.90;;;;;;4996847;28;20533;-83
2021/08/20 05:42:16;;;;;;;4.00;2.92;;;15.50;99.90;;;;;;4993703;28;20033;-82
2021/08/20 05:44:41;;;;;;;4.13;2.92;;;15.60;99.90;;;;;;4996145;28;20030;-82
2021/08/20 05:47:07;;;;;;;6.75;2.92;;;15.60;99.90;;;;;;4997727;28;20058;-82
2021/08/20 05:49:33;;;;;;;4.82;2.97;;;15.60;99.90;;;;;;4996617;28;20128;-81
2021/08/20 05:51:58;;;;;;;4.15;3.13;;;15.60;99.90;;;;;;4997052;28;20034;-81
2021/08/20 05:54:24;;;;;;;4.10;3.03;;;15.70;99.90;;;;;;4994734;28;20030;-81
2021/08/20 05:56:50;;;;;;;3.47;3.17;;;15.80;99.90;;;;;;4993796;28;20022;-82
2021/08/20 05:59:15;;;;;;;9.60;3.50;;;15.80;99.90;;;;;;4996951;28;20088;-81
2021/08/20 06:01:41;;;;;;;4.50;3.08;;;15.80;99.90;;;;;;4996965;28;20026;-82
2021/08/20 06:04:07;;;;;;;9.45;3.53;;;15.80;99.90;;;;;;4996802;28;20037;-81
2021/08/20 06:06:36;;;;;;;6.15;3.20;;;15.80;99.90;;;;;;4995560;28;20113;-81
2021/08/20 06:09:01;;;;;;;3.72;3.17;;;15.80;99.90;;;;;;4992192;28;20450;-82
2021/08/20 06:11:27;;;;;;;6.88;3.38;;;15.90;99.90;;;;;;4997484;28;20030;-82
2021/08/20 06:13:54;;;;;;;3.47;2.97;;;16.00;99.90;;;;;;4996270;28;20026;-81
2021/08/20 06:16:20;;;;;;;5.30;3.10;;;16.00;99.90;;;;;;4996301;28;20058;-82
2021/08/20 06:18:45;;;;;;;6.00;3.30;;;16.00;99.90;;;;;;4996344;28;20080;-82
2021/08/20 06:21:12;;;;;;;5.45;3.75;;;16.20;99.90;;;;;;4992457;28;20479;-82
2021/08/20 06:23:38;;;;;;;4.70;3.42;;;16.20;99.90;;;;;;4996557;28;20531;-81
2021/08/20 06:26:03;;;;;;;4.65;3.47;;;16.30;99.90;;;;;;4995814;28;20032;-81
2021/08/20 06:28:30;;;;;;;4.00;3.50;;;16.40;99.90;;;;;;4995872;28;20022;-81
2021/08/20 06:30:57;;;;;;;5.97;3.30;;;16.50;99.90;;;;;;4978893;28;20552;-81
2021/08/20 06:33:22;;;;;;;6.20;3.80;;;16.60;99.90;;;;;;4993914;28;20399;-81
2021/08/20 06:35:48;;;;;;;4.10;3.70;;;16.70;99.90;;;;;;4976652;28;20054;-82
2021/08/20 06:38:13;;;;;;;6.95;3.85;;;16.70;99.90;;;;;;4996496;28;20045;-80
2021/08/20 06:40:39;;;;;;;7.35;3.90;;;16.90;99.90;;;;;;4995767;28;20297;-80
2021/08/20 06:43:05;;;;;;;4.90;4.00;;;16.90;99.90;;;;;;4996292;28;20033;-81
2021/08/20 06:45:31;;;;;;;13.90;4.78;;;17.10;99.90;;;;;;4994816;28;20021;-80
2021/08/20 06:47:56;;;;;;;10.52;4.15;;;17.20;99.90;;;;;;4992839;28;20034;-80
2021/08/20 06:50:22;;;;;;;23.42;5.57;;;17.20;99.90;;;;;;4996655;28;20034;-80
2021/08/20 06:52:48;;;;;;;20.15;5.57;;;17.30;99.90;;;;;;4995734;28;20493;-79
2021/08/20 06:55:13;;;;;;;6.90;4.50;;;17.50;99.90;;;;;;4995997;28;20029;-80
2021/08/20 06:57:39;;;;;;;14.25;5.20;;;17.50;99.90;;;;;;4995793;28;20026;-80
2021/08/20 07:00:05;;;;;;;5.75;5.07;;;17.50;99.90;;;;;;4991587;28;20126;-81
2021/08/20 07:02:31;;;;;;;5.85;4.72;;;17.60;99.90;;;;;;4996432;28;20030;-80
2021/08/20 07:04:56;;;;;;;8.63;5.20;;;17.70;99.90;;;;;;4996707;28;20033;-81
2021/08/20 07:07:22;;;;;;;5.90;4.97;;;17.80;99.90;;;;;;4995502;28;20022;-80
2021/08/20 07:09:48;;;;;;;5.93;5.10;;;17.80;99.90;;;;;;4995963;28;20038;-81
2021/08/20 07:12:13;;;;;;;6.97;5.07;;;17.80;99.90;;;;;;4992064;28;20113;-80
2021/08/20 07:14:39;;;;;;;6.95;5.53;;;17.80;99.90;;;;;;4995673;28;20053;-81
2021/08/20 07:17:04;;;;;;;7.55;5.60;;;18.00;99.90;;;;;;4996486;28;20146;-80
2021/08/20 07:19:30;;;;;;;5.93;5.32;;;17.90;99.90;;;;;;4995705;28;20094;-79
2021/08/20 07:21:55;;;;;;;6.45;5.85;;;18.00;99.90;;;;;;4995487;28;20072;-79
2021/08/20 07:24:21;;;;;;;7.65;5.82;;;18.00;99.90;;;;;;4993485;28;20026;-81
2021/08/20 07:26:47;;;;;;;6.95;5.53;;;18.30;99.90;;;;;;4994286;28;20046;-81
2021/08/20 07:29:12;;;;;;;9.15;5.97;;;18.40;99.90;;;;;;4996319;28;20038;-79
2021/08/20 07:31:38;;;;;;;5.68;5.10;;;18.40;99.90;;;;;;4995444;28;20022;-81
2021/08/20 07:34:04;;;;;;;10.43;5.35;;;18.60;99.90;;;;;;4995494;28;20625;-81
2021/08/20 07:36:29;;;;;;;6.15;5.57;;;18.60;99.90;;;;;;4996115;28;20064;-81
2021/08/20 07:38:55;;;;;;;6.65;6.00;;;18.70;99.90;;;;;;4996790;28;20076;-81
2021/08/20 07:41:20;;;;;;;9.43;5.85;;;18.60;99.90;;;;;;5000128;28;20113;-81
2021/08/20 07:43:47;;;;;;;7.40;6.28;;;18.70;99.90;;;;;;4998508;28;20030;-81
2021/08/20 07:46:13;;;;;;;7.65;5.85;;;18.70;99.90;;;;;;4998563;28;20023;-81
2021/08/20 07:48:38;;;;;;;41.53;9.50;;;18.80;99.90;;;;;;4999215;28;20414;-81
2021/08/20 07:51:04;;;;;;;8.30;6.30;;;18.90;99.90;;;;;;4994449;28;20110;-81
2021/08/20 07:53:29;;;;;;;9.18;6.05;;;19.10;99.90;;;;;;4999617;28;20022;-81
2021/08/20 07:55:56;;;;;;;8.63;6.40;;;19.10;99.90;;;;;;4998878;28;20034;-81
2021/08/20 07:58:22;;;;;;;9.77;5.25;;;19.10;99.90;;;;;;4999091;28;20109;-81
2021/08/20 08:00:47;;;;;;;7.03;5.57;;;19.30;99.90;;;;;;4999282;28;20144;-81
2021/08/20 08:03:13;;;;;;;10.57;5.40;;;19.60;99.90;;;;;;4977962;28;20084;-81
2021/08/20 08:05:38;;;;;;;6.15;5.07;;;19.70;99.90;;;;;;4998426;28;20023;-81
2021/08/20 08:08:04;;;;;;;7.13;5.55;;;19.80;99.90;;;;;;4998554;28;20365;-81
2021/08/20 08:10:30;;;;;;;8.15;5.07;;;19.80;99.90;;;;;;4998648;28;20038;-81
2021/08/20 08:12:55;;;;;;;6.18;5.18;;;19.90;99.90;;;;;;4998714;28;20026;-81
2021/08/20 08:15:22;;;;;;;5.30;4.78;;;19.80;99.90;;;;;;4997111;28;20026;-81
2021/08/20 08:17:47;;;;;;;5.13;4.63;;;19.70;99.90;;;;;;4996678;28;20615;-81
2021/08/20 08:20:15;;;;;;;5.70;4.93;;;19.70;99.90;;;;;;4998600;28;20023;-81
2021/08/20 08:22:41;;;;;;;5.93;5.32;;;19.80;99.90;;;;;;4998233;28;20483;-81
2021/08/20 08:25:08;;;;;;;5.80;5.13;;;19.90;99.90;;;;;;4998463;28;20019;-81
2021/08/20 08:27:56;;;;;;;5.72;4.70;;;20.00;99.90;;;;;;4998205;28;20038;-81
2021/08/20 08:30:27;;;;;;;7.35;4.57;;;20.00;99.90;;;;;;4983046;28;20038;-81
2021/08/20 08:32:53;;;;;;;5.60;4.45;;;20.20;99.90;;;;;;4995588;28;20025;-81
2021/08/20 08:35:19;;;;;;;5.38;4.88;;;20.20;99.90;;;;;;4998511;28;20054;-81
2021/08/20 08:37:44;;;;;;;6.65;5.03;;;20.20;99.90;;;;;;4998522;28;20034;-81
2021/08/20 08:40:11;;;;;;;5.75;4.65;;;20.20;99.90;;;;;;4998540;28;20022;-81
2021/08/20 08:42:37;;;;;;;6.55;4.80;;;20.40;99.90;;;;;;4997861;28;20067;-81
2021/08/20 08:45:05;;;;;;;5.50;5.00;;;20.50;99.90;;;;;;4993778;28;20096;-81
2021/08/20 08:47:36;;;;;;;5.15;4.60;;;20.50;99.90;;;;;;4997730;28;20506;-81
2021/08/20 08:50:07;;;;;;;7.50;4.18;;;20.40;99.90;;;;;;4997792;28;20475;-81
2021/08/20 08:52:33;;;;;;;8.13;5.35;;;20.70;99.90;;;;;;4997754;28;20424;-81
2021/08/20 08:55:07;;;;;;;5.57;3.90;;;20.70;99.90;;;;;;4998245;28;20095;-81
2021/08/20 08:57:32;;;;;;;5.28;4.25;;;20.70;99.90;;;;;;4997019;28;20026;-81
2021/08/20 08:59:58;;;;;;;4.32;3.92;;;20.70;99.90;;;;;;4994309;28;20033;-81
2021/08/20 09:02:25;;;;;;;5.20;3.97;;;20.90;99.90;;;;;;4998577;28;20146;-81
2021/08/20 09:04:59;;;;;;;4.68;4.07;;;21.10;99.90;;;;;;4997265;28;20399;-81
2021/08/20 09:07:25;;;;;;;5.63;4.57;;;21.10;99.90;;;;;;4997559;28;20037;-81
2021/08/20 09:10:14;;;;;;;4.40;4.00;;;21.10;99.90;;;;;;4997741;28;20065;-81
2021/08/20 09:12:52;;;;;;;4.38;3.50;;;21.00;99.90;;;;;;4997475;28;20022;-81
2021/08/20 09:15:20;;;;;;;5.00;3.85;;;21.20;99.90;;;;;;4977196;28;20046;-81
2021/08/20 09:17:48;;;;;;;5.93;4.10;;;21.30;99.90;;;;;;4995660;28;20041;-81
2021/08/20 09:20:25;;;;;;;6.30;3.70;;;21.50;99.90;;;;;;4997451;28;20494;-81
2021/08/20 09:22:55;;;;;;;3.92;3.47;;;21.60;99.90;;;;;;4997762;28;20149;-79
2021/08/20 09:25:35;;;;;;;3.72;3.35;;;21.60;99.90;;;;;;4997252;28;20026;-79
2021/08/20 09:28:17;;;;;;;4.40;4.00;;;21.80;99.90;;;;;;4997327;28;20076;-80
2021/08/20 09:30:59;;;;;;;6.70;3.85;;;21.90;99.90;;;;;;4997254;28;20049;-80
2021/08/20 09:33:43;;;;;;;4.00;3.30;;;22.00;99.90;;;;;;4994939;28;20117;-79
2021/08/20 09:36:19;;;;;;;4.35;3.85;;;22.10;99.90;;;;;;4977780;28;20046;-79
2021/08/20 09:38:57;;;;;;;3.90;3.30;;;22.20;99.90;;;;;;4995962;28;20510;-79
2021/08/20 09:41:36;;;;;;;4.57;3.85;;;22.40;99.90;;;;;;4979237;28;20034;-80
2021/08/20 09:44:07;;;;;;;3.72;3.42;;;22.20;99.90;;;;;;4997633;28;20026;-80
2021/08/20 09:46:43;;;;;;;4.60;3.40;;;22.10;99.90;;;;;;4996721;28;20084;-80
2021/08/20 09:49:09;;;;;;;4.65;3.80;;;22.40;99.90;;;;;;4996853;28;20443;-81
2021/08/20 09:51:38;;;;;;;3.47;3.17;;;22.10;99.90;;;;;;4996289;28;20044;-81
2021/08/20 09:54:10;;;;;;;4.10;3.70;;;22.50;99.90;;;;;;4992693;28;22238;-81
2021/08/20 09:56:36;;;;;;;4.03;3.63;;;22.50;99.90;;;;;;5004970;28;20030;-81
2021/08/20 09:59:06;;;;;;;4.25;3.78;;;22.50;99.90;;;;;;4996807;28;20538;-81
2021/08/20 10:01:37;;;;;;;3.78;3.47;;;22.70;99.90;;;;;;4996353;28;20034;-81
2021/08/20 10:04:05;;;;;;;4.50;3.83;;;22.80;99.90;;;;;;4996499;28;20069;-81
2021/08/20 10:06:34;;;;;;;4.88;3.97;;;22.70;99.90;;;;;;4995558;28;20026;-83
2021/08/20 10:09:06;;;;;;;4.68;4.22;;;22.80;99.90;;;;;;4997095;28;20038;-85
2021/08/20 10:11:34;;;;;;;4.10;3.58;;;22.90;99.90;;;;;;4998314;28;20105;-84
2021/08/20 10:14:01;;;;;;;3.65;3.35;;;23.20;99.90;;;;;;4997183;28;20030;-85
2021/08/20 10:16:30;;;;;;;4.00;3.30;;;23.50;99.90;;;;;;4996466;28;20022;-87
2021/08/20 10:18:58;;;;;;;4.20;3.47;;;23.70;99.90;;;;;;4997621;28;20038;-88
2021/08/20 10:21:23;;;;;;;3.25;2.83;;;23.70;99.90;;;;;;4995114;28;20125;-88
2021/08/20 10:23:49;;;;;;;4.28;3.20;;;23.90;99.90;;;;;;4995078;28;20487;-85
2021/08/20 10:26:16;;;;;;;4.28;3.70;;;24.20;99.90;;;;;;4997630;28;20026;-82
2021/08/20 10:28:43;;;;;;;4.60;3.17;;;24.50;99.90;;;;;;4996228;28;20038;-86
2021/08/20 10:31:10;;;;;;;3.30;3.00;;;24.80;99.90;;;;;;4996445;28;20109;-87
2021/08/20 10:33:37;;;;;;;3.55;2.90;;;25.80;99.90;;;;;;4996582;28;20030;-87
2021/08/20 10:36:03;;;;;;;3.60;3.30;;;28.20;99.90;;;;;;4975256;28;20057;-87
2021/08/20 10:38:42;;;;;;;3.30;3.00;;;32.10;99.90;;;;;;4997570;28;20427;-82
2021/08/20 10:41:09;;;;;;;3.38;3.05;;;34.70;99.90;;;;;;4997063;28;20023;-86
2021/08/20 10:44:25;;;;;;;3.25;3.00;;;36.40;99.90;;;;;;4979549;28;20034;-87
2021/08/20 10:46:51;;;;;;;3.13;2.53;;;37.60;99.90;;;;;;4935370;29;20055;-89
2021/08/20 10:49:21;;;;;;;3.35;3.05;;;37.80;99.90;;;;;;4951154;29;20444;-85
2021/08/20 10:51:49;;;;;;;3.25;2.95;;;38.10;99.90;;;;;;4951131;29;20203;-86
2021/08/20 10:54:26;;;;;;;4.05;2.90;;;38.50;99.90;;;;;;4951598;29;20038;-87
2021/08/20 10:56:52;;;;;;;3.00;2.47;;;38.10;99.90;;;;;;4931241;29;20032;-86
2021/08/20 10:59:36;;;;;;;2.78;2.58;;;34.40;99.90;;;;;;4948247;29;20043;-86
2021/08/20 11:02:20;;;;;;;2.50;2.30;;;32.60;99.90;;;;;;4938955;29;20041;-86
2021/08/20 11:05:15;;;;;;;2.58;2.38;;;34.40;99.90;;;;;;4948262;29;20031;-85
2021/08/20 11:07:44;;;;;;;2.95;2.65;;;37.70;99.90;;;;;;4927389;29;20044;-81
2021/08/20 11:10:09;;;;;;;3.03;2.40;;;40.20;99.90;;;;;;4943704;28;20531;-84
2021/08/20 11:12:37;;;;;;;2.40;2.20;;;41.00;99.90;;;;;;4952448;29;20035;-82
2021/08/20 11:15:17;;;;;;;3.50;2.38;;;41.30;99.90;;;;;;4938941;29;20035;-83
2021/08/20 11:17:51;;;;;;;2.30;2.08;;;41.40;99.90;;;;;;4951975;29;20042;-85
2021/08/20 11:20:19;;;;;;;2.00;1.90;;;40.90;99.90;;;;;;4942262;29;20492;-83
2021/08/20 11:23:08;;;;;;;2.30;2.10;;;40.80;99.90;;;;;;4987086;28;20080;-82
2021/08/20 11:25:40;;;;;;;2.10;1.90;;;42.00;99.90;;;;;;4986236;28;20034;-84
2021/08/20 11:28:26;;;;;;;2.05;1.95;;;42.40;99.90;;;;;;5000016;28;20026;-84
2021/08/20 11:31:06;;;;;;;4.22;2.38;;;43.20;99.90;;;;;;4999829;28;20038;-84
2021/08/20 11:33:33;;;;;;;11.93;3.58;;;42.90;99.90;;;;;;4998355;28;20100;-84
2021/08/20 11:36:03;;;;;;;3.70;2.50;;;42.30;99.90;;;;;;4995907;28;20072;-84
2021/08/20 11:38:32;;;;;;;4.03;2.33;;;42.90;99.90;;;;;;5000513;28;20456;-82
2021/08/20 11:41:05;;;;;;;2.60;2.38;;;43.10;99.90;;;;;;4999287;28;20129;-82
2021/08/20 11:43:32;;;;;;;2.22;2.03;;;43.30;99.90;;;;;;4998975;28;20445;-82
2021/08/20 11:46:06;;;;;;;4.55;3.20;;;43.10;99.90;;;;;;4999459;28;20084;-82
2021/08/20 11:48:48;;;;;;;6.25;4.57;;;42.20;99.90;;;;;;4998406;28;20034;-82
2021/08/20 11:51:32;;;;;;;3.08;2.40;;;42.60;99.90;;;;;;4981269;28;20120;-83
2021/08/20 11:54:00;;;;;;;2.60;2.40;;;42.30;99.90;;;;;;4995823;28;20484;-83
2021/08/20 11:56:26;;;;;;;2.92;2.72;;;42.40;99.90;;;;;;5000077;28;20026;-82
2021/08/20 11:58:53;;;;;;;2.40;2.20;;;42.10;99.90;;;;;;4998323;28;20114;-82
2021/08/20 12:01:18;;;;;;;2.55;2.35;;;42.50;99.90;;;;;;4999251;28;20037;-82
2021/08/20 12:03:46;;;;;;;2.58;2.38;;;42.30;99.90;;;;;;4999101;28;20114;-83
2021/08/20 12:06:13;;;;;;;2.30;2.10;;;42.50;99.90;;;;;;4995206;28;20624;-83
2021/08/20 12:08:40;;;;;;;2.30;2.10;;;42.00;99.90;;;;;;4998384;28;20141;-83
2021/08/20 12:11:07;;;;;;;3.00;2.63;;;42.30;99.90;;;;;;4999130;28;20113;-82
2021/08/20 12:13:47;;;;;;;3.60;2.40;;;41.60;99.90;;;;;;4998306;28;20026;-83
2021/08/20 12:16:32;;;;;;;2.70;2.50;;;41.30;99.90;;;;;;4998490;28;20479;-83
2021/08/20 12:18:58;;;;;;;2.33;2.13;;;40.90;99.90;;;;;;4998737;28;20040;-83
2021/08/20 12:21:25;;;;;;;2.95;2.25;;;41.80;99.90;;;;;;4996244;28;20037;-84
2021/08/20 12:23:58;;;;;;;2.47;2.28;;;40.70;99.90;;;;;;4996343;28;20478;-83
2021/08/20 12:26:24;;;;;;;3.55;2.10;;;41.00;99.90;;;;;;4997418;28;20085;-83
2021/08/20 12:28:50;;;;;;;2.45;2.22;;;40.80;99.90;;;;;;4998361;28;20337;-83
2021/08/20 12:31:23;;;;;;;3.20;2.35;;;40.70;99.90;;;;;;4998668;28;20030;-83
2021/08/20 12:34:00;;;;;;;2.33;2.13;;;41.00;99.90;;;;;;4997972;28;20131;-83
2021/08/20 12:36:26;;;;;;;2.85;2.50;;;41.80;99.90;;;;;;4996841;28;20022;-83
2021/08/20 12:39:12;;;;;;;2.35;2.15;;;41.30;99.90;;;;;;4996278;28;20049;-83
2021/08/20 12:41:39;;;;;;;2.20;2.00;;;41.70;99.90;;;;;;5006381;28;20084;-83
2021/08/20 12:44:06;;;;;;;3.03;1.88;;;41.90;99.90;;;;;;4998188;28;20562;-83
2021/08/20 12:46:42;;;;;;;3.38;2.10;;;41.90;99.90;;;;;;4997942;28;20035;-83
2021/08/20 12:49:08;;;;;;;2.45;2.25;;;41.60;99.90;;;;;;4998039;28;20042;-83